sensor_id;sensor_type;location;lat;lon;timestamp;pressure;altitude;pressure_sealevel;temperature;humidity
9110;BME280;4590;51.462;6.692;2023-02-15T00:01:29;102718.19;;;6.92;59.96
9110;BME280;4590;51.462;6.692;2023-02-15T00:03:54;102714.97;;;6.95;60.14
9110;BME280;4590;51.462;6.692;2023-02-15T00:06:20;102707.34;;;6.97;59.63
9110;BME280;4590;51.462;6.692;2023-02-15T00:08:45;102705.44;;;6.97;59.63
9110;BME280;4590;51.462;6.692;2023-02-15T00:11:13;102707.56;;;6.95;59.24
9110;BME280;4590;51.462;6.692;2023-02-15T00:13:39;102711.63;;;6.93;59.95
9110;BME280;4590;51.462;6.692;2023-02-15T00:16:11;102704.97;;;6.89;59.17
9110;BME280;4590;51.462;6.692;2023-02-15T00:18:38;102716.97;;;6.88;59.44
9110;BME280;4590;51.462;6.692;2023-02-15T00:21:08;102703.97;;;6.83;59.24
9110;BME280;4590;51.462;6.692;2023-02-15T00:23:34;102703.38;;;6.81;59.69
9110;BME280;4590;51.462;6.692;2023-02-15T00:26:07;102708.47;;;6.78;59.95
9110;BME280;4590;51.462;6.692;2023-02-15T00:28:32;102703.00;;;6.78;59.74
9110;BME280;4590;51.462;6.692;2023-02-15T00:31:11;102697.03;;;6.69;59.18
9110;BME280;4590;51.462;6.692;2023-02-15T00:33:38;102693.00;;;6.72;60.06
9110;BME280;4590;51.462;6.692;2023-02-15T00:36:05;102698.72;;;6.70;59.36
9110;BME280;4590;51.462;6.692;2023-02-15T00:38:31;102692.25;;;6.64;59.59
9110;BME280;4590;51.462;6.692;2023-02-15T00:40:59;102692.72;;;6.61;59.91
9110;BME280;4590;51.462;6.692;2023-02-15T00:43:25;102696.78;;;6.59;59.80
9110;BME280;4590;51.462;6.692;2023-02-15T00:45:51;102689.03;;;6.56;60.09
9110;BME280;4590;51.462;6.692;2023-02-15T00:48:17;102694.72;;;6.54;59.99
9110;BME280;4590;51.462;6.692;2023-02-15T00:50:48;102690.78;;;6.50;59.86
9110;BME280;4590;51.462;6.692;2023-02-15T00:53:14;102694.59;;;6.49;59.87
9110;BME280;4590;51.462;6.692;2023-02-15T00:55:39;102684.94;;;6.47;59.96
9110;BME280;4590;51.462;6.692;2023-02-15T00:58:06;102683.03;;;6.47;60.54
9110;BME280;4590;51.462;6.692;2023-02-15T01:00:31;102690.91;;;6.44;59.67
9110;BME280;4590;51.462;6.692;2023-02-15T01:02:57;102689.69;;;6.40;59.89
9110;BME280;4590;51.462;6.692;2023-02-15T01:05:22;102686.56;;;6.36;60.13
9110;BME280;4590;51.462;6.692;2023-02-15T01:07:47;102699.63;;;6.34;59.75
9110;BME280;4590;51.462;6.692;2023-02-15T01:10:12;102686.19;;;6.32;59.85
9110;BME280;4590;51.462;6.692;2023-02-15T01:12:38;102696.28;;;6.32;59.73
9110;BME280;4590;51.462;6.692;2023-02-15T01:15:03;102696.78;;;6.29;59.79
9110;BME280;4590;51.462;6.692;2023-02-15T01:17:29;102696.16;;;6.27;59.41
9110;BME280;4590;51.462;6.692;2023-02-15T01:19:54;102690.91;;;6.25;60.17
9110;BME280;4590;51.462;6.692;2023-02-15T01:22:19;102682.94;;;6.24;60.15
9110;BME280;4590;51.462;6.692;2023-02-15T01:24:45;102688.63;;;6.22;60.00
9110;BME280;4590;51.462;6.692;2023-02-15T01:27:10;102676.88;;;6.22;59.61
9110;BME280;4590;51.462;6.692;2023-02-15T01:29:35;102682.34;;;6.22;60.25
9110;BME280;4590;51.462;6.692;2023-02-15T01:32:01;102682.34;;;6.22;59.85
9110;BME280;4590;51.462;6.692;2023-02-15T01:34:26;102683.41;;;6.21;59.86
9110;BME280;4590;51.462;6.692;2023-02-15T01:36:52;102685.53;;;6.19;60.10
9110;BME280;4590;51.462;6.692;2023-02-15T01:39:17;102677.78;;;6.16;60.09
9110;BME280;4590;51.462;6.692;2023-02-15T01:41:42;102672.53;;;6.14;59.64
9110;BME280;4590;51.462;6.692;2023-02-15T01:44:47;102667.63;;;6.05;60.45
9110;BME280;4590;51.462;6.692;2023-02-15T01:47:32;102664.44;;;6.08;60.19
9110;BME280;4590;51.462;6.692;2023-02-15T01:50:03;102660.66;;;6.09;60.12
9110;BME280;4590;51.462;6.692;2023-02-15T01:52:35;102660.66;;;6.09;60.10
9110;BME280;4590;51.462;6.692;2023-02-15T01:55:02;102668.84;;;6.09;60.63
9110;BME280;4590;51.462;6.692;2023-02-15T01:57:28;102665.28;;;6.08;60.17
9110;BME280;4590;51.462;6.692;2023-02-15T01:59:58;102665.34;;;6.02;59.96
9110;BME280;4590;51.462;6.692;2023-02-15T02:02:26;102652.75;;;6.01;59.99
9110;BME280;4590;51.462;6.692;2023-02-15T02:04:54;102657.03;;;5.96;60.70
9110;BME280;4590;51.462;6.692;2023-02-15T02:07:24;102643.94;;;5.98;60.48
9110;BME280;4590;51.462;6.692;2023-02-15T02:09:51;102641.22;;;5.98;60.51
9110;BME280;4590;51.462;6.692;2023-02-15T02:12:18;102642.03;;;5.99;60.55
9110;BME280;4590;51.462;6.692;2023-02-15T02:14:44;102645.59;;;5.99;60.44
9110;BME280;4590;51.462;6.692;2023-02-15T02:17:22;102641.69;;;5.95;60.34
9110;BME280;4590;51.462;6.692;2023-02-15T02:22:46;102637.31;;;5.88;60.90
9110;BME280;4590;51.462;6.692;2023-02-15T02:28:30;102623.50;;;5.83;60.62
9110;BME280;4590;51.462;6.692;2023-02-15T02:33:59;102628.75;;;5.84;60.18
9110;BME280;4590;51.462;6.692;2023-02-15T02:36:38;102621.03;;;5.81;60.23
9110;BME280;4590;51.462;6.692;2023-02-15T02:42:06;102609.50;;;5.79;60.89
9110;BME280;4590;51.462;6.692;2023-02-15T02:44:47;102602.38;;;5.78;60.18
9110;BME280;4590;51.462;6.692;2023-02-15T02:47:24;102597.72;;;5.79;60.51
9110;BME280;4590;51.462;6.692;2023-02-15T02:49:52;102595.28;;;5.71;61.47
9110;BME280;4590;51.462;6.692;2023-02-15T02:55:40;102600.16;;;5.69;60.39
9110;BME280;4590;51.462;6.692;2023-02-15T02:58:10;102595.28;;;5.71;61.09
9110;BME280;4590;51.462;6.692;2023-02-15T03:00:55;102592.66;;;5.64;60.46
9110;BME280;4590;51.462;6.692;2023-02-15T03:03:35;102588.94;;;5.58;60.77
9110;BME280;4590;51.462;6.692;2023-02-15T03:06:06;102589.78;;;5.59;60.60
9110;BME280;4590;51.462;6.692;2023-02-15T03:08:38;102584.75;;;5.56;60.91
9110;BME280;4590;51.462;6.692;2023-02-15T03:11:05;102587.28;;;5.57;60.72
9110;BME280;4590;51.462;6.692;2023-02-15T03:13:32;102582.03;;;5.56;60.84
9110;BME280;4590;51.462;6.692;2023-02-15T03:15:57;102581.13;;;5.44;61.20
9110;BME280;4590;51.462;6.692;2023-02-15T03:18:46;102581.53;;;5.47;60.56
9110;BME280;4590;51.462;6.692;2023-02-15T03:21:20;102579.63;;;5.48;60.72
9110;BME280;4590;51.462;6.692;2023-02-15T03:23:50;102579.84;;;5.46;60.98
9110;BME280;4590;51.462;6.692;2023-02-15T03:26:17;102582.81;;;5.45;60.20
9110;BME280;4590;51.462;6.692;2023-02-15T03:28:47;102589.31;;;5.44;61.13
9110;BME280;4590;51.462;6.692;2023-02-15T03:31:14;102590.38;;;5.43;60.92
9110;BME280;4590;51.462;6.692;2023-02-15T03:33:47;102580.75;;;5.40;60.51
9110;BME280;4590;51.462;6.692;2023-02-15T03:36:20;102581.19;;;5.37;60.35
9110;BME280;4590;51.462;6.692;2023-02-15T03:39:03;102578.09;;;5.34;60.69
9110;BME280;4590;51.462;6.692;2023-02-15T03:41:34;102575.94;;;5.36;60.70
9110;BME280;4590;51.462;6.692;2023-02-15T03:44:11;102582.50;;;5.35;60.31
9110;BME280;4590;51.462;6.692;2023-02-15T03:46:45;102575.38;;;5.34;60.59
9110;BME280;4590;51.462;6.692;2023-02-15T03:49:39;102568.91;;;5.28;60.80
9110;BME280;4590;51.462;6.692;2023-02-15T03:52:08;102573.69;;;5.33;61.00
9110;BME280;4590;51.462;6.692;2023-02-15T03:54:36;102574.75;;;5.32;60.83
9110;BME280;4590;51.462;6.692;2023-02-15T03:57:11;102571.41;;;5.29;60.96
9110;BME280;4590;51.462;6.692;2023-02-15T03:59:57;102571.88;;;5.26;60.61
9110;BME280;4590;51.462;6.692;2023-02-15T04:02:59;102569.81;;;5.22;60.73
9110;BME280;4590;51.462;6.692;2023-02-15T04:05:29;102575.88;;;5.24;60.90
9110;BME280;4590;51.462;6.692;2023-02-15T04:07:55;102572.53;;;5.22;60.73
9110;BME280;4590;51.462;6.692;2023-02-15T04:10:20;102571.94;;;5.20;61.22
9110;BME280;4590;51.462;6.692;2023-02-15T04:13:04;102566.72;;;5.18;60.83
9110;BME280;4590;51.462;6.692;2023-02-15T04:15:29;102572.19;;;5.18;61.34
9110;BME280;4590;51.462;6.692;2023-02-15T04:18:13;102569.66;;;5.17;61.07
9110;BME280;4590;51.462;6.692;2023-02-15T04:20:38;102567.38;;;5.14;60.89
9110;BME280;4590;51.462;6.692;2023-02-15T04:23:22;102570.34;;;5.12;60.98
9110;BME280;4590;51.462;6.692;2023-02-15T04:26:06;102575.19;;;5.10;60.85
9110;BME280;4590;51.462;6.692;2023-02-15T04:28:31;102564.50;;;5.09;61.06
9110;BME280;4590;51.462;6.692;2023-02-15T04:30:57;102565.78;;;5.06;61.02
9110;BME280;4590;51.462;6.692;2023-02-15T04:33:22;102569.34;;;5.07;61.08
9110;BME280;4590;51.462;6.692;2023-02-15T04:35:48;102566.84;;;5.05;61.16
9110;BME280;4590;51.462;6.692;2023-02-15T04:38:13;102568.97;;;5.03;61.14
9110;BME280;4590;51.462;6.692;2023-02-15T04:40:38;102560.63;;;4.98;60.84
9110;BME280;4590;51.462;6.692;2023-02-15T04:43:03;102554.78;;;4.94;61.59
9110;BME280;4590;51.462;6.692;2023-02-15T04:45:29;102548.94;;;4.91;61.53
9110;BME280;4590;51.462;6.692;2023-02-15T04:47:54;102551.88;;;4.89;61.03
9110;BME280;4590;51.462;6.692;2023-02-15T04:50:19;102561.38;;;4.87;61.66
9110;BME280;4590;51.462;6.692;2023-02-15T04:52:45;102560.75;;;4.85;61.49
9110;BME280;4590;51.462;6.692;2023-02-15T04:55:10;102556.78;;;4.81;61.68
9110;BME280;4590;51.462;6.692;2023-02-15T04:57:35;102560.56;;;4.80;61.77
9110;BME280;4590;51.462;6.692;2023-02-15T05:00:01;102559.75;;;4.79;61.62
9110;BME280;4590;51.462;6.692;2023-02-15T05:02:26;102554.50;;;4.78;61.52
9110;BME280;4590;51.462;6.692;2023-02-15T05:04:51;102551.16;;;4.76;61.75
9110;BME280;4590;51.462;6.692;2023-02-15T05:07:17;102546.78;;;4.75;61.57
9110;BME280;4590;51.462;6.692;2023-02-15T05:09:42;102548.44;;;4.76;62.35
9110;BME280;4590;51.462;6.692;2023-02-15T05:12:08;102550.94;;;4.77;62.26
9110;BME280;4590;51.462;6.692;2023-02-15T05:14:33;102549.06;;;4.78;62.25
9110;BME280;4590;51.462;6.692;2023-02-15T05:16:58;102550.72;;;4.79;62.32
9110;BME280;4590;51.462;6.692;2023-02-15T05:19:26;102553.22;;;4.80;62.20
9110;BME280;4590;51.462;6.692;2023-02-15T05:21:51;102537.72;;;4.81;61.98
9110;BME280;4590;51.462;6.692;2023-02-15T05:24:17;102535.81;;;4.81;62.71
9110;BME280;4590;51.462;6.692;2023-02-15T05:27:01;102536.44;;;4.83;62.78
9110;BME280;4590;51.462;6.692;2023-02-15T05:29:45;102533.00;;;4.88;62.74
9110;BME280;4590;51.462;6.692;2023-02-15T05:32:13;102527.31;;;4.89;62.79
9110;BME280;4590;51.462;6.692;2023-02-15T05:34:38;102516.19;;;4.91;62.57
9110;BME280;4590;51.462;6.692;2023-02-15T05:37:03;102520.19;;;4.88;63.27
9110;BME280;4590;51.462;6.692;2023-02-15T05:39:28;102518.69;;;4.92;62.95
9110;BME280;4590;51.462;6.692;2023-02-15T05:41:54;102513.03;;;4.94;62.81
9110;BME280;4590;51.462;6.692;2023-02-15T05:44:19;102514.53;;;4.90;63.71
9110;BME280;4590;51.462;6.692;2023-02-15T05:46:44;102519.97;;;4.90;63.45
9110;BME280;4590;51.462;6.692;2023-02-15T05:49:09;102518.03;;;4.97;63.50
9110;BME280;4590;51.462;6.692;2023-02-15T05:51:35;102514.84;;;5.00;62.79
9110;BME280;4590;51.462;6.692;2023-02-15T05:54:00;102517.16;;;5.03;62.90
9110;BME280;4590;51.462;6.692;2023-02-15T05:56:25;102522.13;;;5.06;63.10
9110;BME280;4590;51.462;6.692;2023-02-15T05:58:52;102521.06;;;5.07;62.85
9110;BME280;4590;51.462;6.692;2023-02-15T06:01:18;102516.00;;;5.11;63.15
9110;BME280;4590;51.462;6.692;2023-02-15T06:03:45;102519.56;;;5.11;63.05
9110;BME280;4590;51.462;6.692;2023-02-15T06:06:11;102516.81;;;5.11;63.04
9110;BME280;4590;51.462;6.692;2023-02-15T06:08:37;102510.91;;;4.96;63.87
9110;BME280;4590;51.462;6.692;2023-02-15T06:11:03;102525.69;;;5.07;63.29
9110;BME280;4590;51.462;6.692;2023-02-15T06:13:28;102517.59;;;5.00;63.20
9110;BME280;4590;51.462;6.692;2023-02-15T06:15:54;102523.88;;;5.01;63.66
9110;BME280;4590;51.462;6.692;2023-02-15T06:18:19;102528.78;;;4.92;64.30
9110;BME280;4590;51.462;6.692;2023-02-15T06:20:48;102523.72;;;4.96;64.05
9110;BME280;4590;51.462;6.692;2023-02-15T06:23:13;102520.97;;;4.96;63.64
9110;BME280;4590;51.462;6.692;2023-02-15T06:25:39;102519.47;;;5.00;63.39
9110;BME280;4590;51.462;6.692;2023-02-15T06:28:04;102524.09;;;4.99;63.77
9110;BME280;4590;51.462;6.692;2023-02-15T06:30:29;102524.84;;;5.06;63.54
9110;BME280;4590;51.462;6.692;2023-02-15T06:32:55;102528.19;;;5.08;63.28
9110;BME280;4590;51.462;6.692;2023-02-15T06:35:20;102527.56;;;5.06;63.25
9110;BME280;4590;51.462;6.692;2023-02-15T06:37:47;102529.41;;;5.12;62.89
9110;BME280;4590;51.462;6.692;2023-02-15T06:40:12;102541.56;;;5.16;63.02
9110;BME280;4590;51.462;6.692;2023-02-15T06:42:38;102541.56;;;5.16;62.97
9110;BME280;4590;51.462;6.692;2023-02-15T06:45:04;102545.13;;;5.17;62.97
9110;BME280;4590;51.462;6.692;2023-02-15T06:47:29;102541.31;;;5.18;63.02
9110;BME280;4590;51.462;6.692;2023-02-15T06:49:54;102542.16;;;5.18;62.66
9110;BME280;4590;51.462;6.692;2023-02-15T06:52:20;102541.09;;;5.19;63.07
9110;BME280;4590;51.462;6.692;2023-02-15T06:54:45;102553.66;;;5.20;62.95
9110;BME280;4590;51.462;6.692;2023-02-15T06:57:10;102544.63;;;5.20;62.86
9110;BME280;4590;51.462;6.692;2023-02-15T06:59:36;102541.91;;;5.20;62.66
9110;BME280;4590;51.462;6.692;2023-02-15T07:02:01;102530.19;;;5.19;62.82
9110;BME280;4590;51.462;6.692;2023-02-15T07:04:26;102539.78;;;5.22;62.69
9110;BME280;4590;51.462;6.692;2023-02-15T07:06:53;102535.16;;;5.22;62.47
9110;BME280;4590;51.462;6.692;2023-02-15T07:09:19;102534.34;;;5.22;62.97
9110;BME280;4590;51.462;6.692;2023-02-15T07:11:44;102530.53;;;5.23;62.05
9110;BME280;4590;51.462;6.692;2023-02-15T07:14:27;102528.44;;;5.25;62.54
9110;BME280;4590;51.462;6.692;2023-02-15T07:16:53;102528.19;;;5.26;62.55
9110;BME280;4590;51.462;6.692;2023-02-15T07:19:18;102517.06;;;5.28;62.52
9110;BME280;4590;51.462;6.692;2023-02-15T07:21:43;102520.00;;;5.26;62.73
9110;BME280;4590;51.462;6.692;2023-02-15T07:24:10;102515.00;;;5.23;62.33
9110;BME280;4590;51.462;6.692;2023-02-15T07:26:35;102510.75;;;5.27;62.07
9110;BME280;4590;51.462;6.692;2023-02-15T07:29:01;102514.16;;;5.23;63.13
9110;BME280;4590;51.462;6.692;2023-02-15T07:31:26;102501.81;;;5.20;63.04
9110;BME280;4590;51.462;6.692;2023-02-15T07:33:51;102508.41;;;5.13;63.43
9110;BME280;4590;51.462;6.692;2023-02-15T07:36:17;102502.75;;;5.14;63.67
9110;BME280;4590;51.462;6.692;2023-02-15T07:38:42;102496.97;;;5.22;63.55
9110;BME280;4590;51.462;6.692;2023-02-15T07:41:13;102495.28;;;5.21;63.85
9110;BME280;4590;51.462;6.692;2023-02-15T07:43:40;102492.88;;;5.32;63.67
9110;BME280;4590;51.462;6.692;2023-02-15T07:46:08;102484.81;;;5.37;63.89
9110;BME280;4590;51.462;6.692;2023-02-15T07:48:35;102491.66;;;5.46;63.59
9110;BME280;4590;51.462;6.692;2023-02-15T07:51:06;102485.78;;;5.60;62.99
9110;BME280;4590;51.462;6.692;2023-02-15T07:53:32;102486.06;;;5.71;62.70
9110;BME280;4590;51.462;6.692;2023-02-15T07:56:02;102488.69;;;5.77;62.58
9110;BME280;4590;51.462;6.692;2023-02-15T07:58:28;102489.91;;;5.81;62.46
9110;BME280;4590;51.462;6.692;2023-02-15T08:01:13;102491.19;;;5.79;62.61
9110;BME280;4590;51.462;6.692;2023-02-15T08:03:38;102483.19;;;5.66;62.37
9110;BME280;4590;51.462;6.692;2023-02-15T08:06:04;102475.66;;;5.79;61.54
9110;BME280;4590;51.462;6.692;2023-02-15T08:08:29;102470.47;;;5.89;62.04
9110;BME280;4590;51.462;6.692;2023-02-15T08:13:47;102465.66;;;5.85;61.33
9110;BME280;4590;51.462;6.692;2023-02-15T08:19:00;102469.84;;;5.87;61.20
9110;BME280;4590;51.462;6.692;2023-02-15T08:21:27;102469.97;;;5.81;61.80
9110;BME280;4590;51.462;6.692;2023-02-15T08:23:54;102471.31;;;5.90;61.15
9110;BME280;4590;51.462;6.692;2023-02-15T08:26:20;102464.94;;;5.96;61.37
9110;BME280;4590;51.462;6.692;2023-02-15T08:28:45;102462.06;;;6.03;61.25
9110;BME280;4590;51.462;6.692;2023-02-15T08:31:12;102461.47;;;6.01;61.89
9110;BME280;4590;51.462;6.692;2023-02-15T08:33:40;102453.25;;;5.89;61.98
9110;BME280;4590;51.462;6.692;2023-02-15T08:36:11;102447.03;;;6.12;61.14
9110;BME280;4590;51.462;6.692;2023-02-15T08:38:36;102444.63;;;6.15;61.41
9110;BME280;4590;51.462;6.692;2023-02-15T08:41:23;102444.53;;;6.10;60.79
9110;BME280;4590;51.462;6.692;2023-02-15T08:43:53;102446.34;;;6.28;60.56
9110;BME280;4590;51.462;6.692;2023-02-15T08:46:20;102449.66;;;6.53;60.54
9110;BME280;4590;51.462;6.692;2023-02-15T08:48:46;102448.81;;;6.64;60.37
9110;BME280;4590;51.462;6.692;2023-02-15T08:51:15;102446.03;;;6.99;60.21
9110;BME280;4590;51.462;6.692;2023-02-15T08:53:42;102439.59;;;7.17;59.69
9110;BME280;4590;51.462;6.692;2023-02-15T08:56:09;102444.00;;;7.47;59.17
9110;BME280;4590;51.462;6.692;2023-02-15T08:58:35;102443.94;;;7.58;56.00
9110;BME280;4590;51.462;6.692;2023-02-15T09:01:01;102435.44;;;7.71;57.66
9110;BME280;4590;51.462;6.692;2023-02-15T09:03:29;102438.22;;;8.05;57.20
9110;BME280;4590;51.462;6.692;2023-02-15T09:05:59;102436.75;;;8.31;56.79
9110;BME280;4590;51.462;6.692;2023-02-15T09:08:25;102435.19;;;8.35;56.26
9110;BME280;4590;51.462;6.692;2023-02-15T09:10:50;102430.50;;;8.52;55.79
9110;BME280;4590;51.462;6.692;2023-02-15T09:13:16;102422.50;;;8.67;55.29
9110;BME280;4590;51.462;6.692;2023-02-15T09:15:41;102422.41;;;8.79;55.53
9110;BME280;4590;51.462;6.692;2023-02-15T09:18:06;102419.03;;;8.94;54.99
9110;BME280;4590;51.462;6.692;2023-02-15T09:20:35;102424.47;;;9.10;54.04
9110;BME280;4590;51.462;6.692;2023-02-15T09:23:00;102424.41;;;9.27;54.27
9110;BME280;4590;51.462;6.692;2023-02-15T09:25:26;102423.16;;;9.40;53.88
9110;BME280;4590;51.462;6.692;2023-02-15T09:27:52;102426.84;;;9.50;53.62
9110;BME280;4590;51.462;6.692;2023-02-15T09:30:18;102423.25;;;9.72;53.68
9110;BME280;4590;51.462;6.692;2023-02-15T09:32:43;102425.31;;;9.87;53.37
9110;BME280;4590;51.462;6.692;2023-02-15T09:35:09;102426.59;;;10.11;53.00
9110;BME280;4590;51.462;6.692;2023-02-15T09:37:34;102423.22;;;10.31;53.13
9110;BME280;4590;51.462;6.692;2023-02-15T09:39:59;102431.78;;;10.02;51.89
9110;BME280;4590;51.462;6.692;2023-02-15T09:42:34;102421.00;;;10.28;50.49
9110;BME280;4590;51.462;6.692;2023-02-15T09:45:31;102422.59;;;10.18;48.94
9110;BME280;4590;51.462;6.692;2023-02-15T09:48:23;102414.50;;;10.44;49.43
9110;BME280;4590;51.462;6.692;2023-02-15T09:53:52;102422.34;;;10.62;48.81
9110;BME280;4590;51.462;6.692;2023-02-15T09:56:39;102421.94;;;10.85;50.20
9110;BME280;4590;51.462;6.692;2023-02-15T09:59:19;102415.69;;;11.05;49.82
9110;BME280;4590;51.462;6.692;2023-02-15T10:02:06;102416.38;;;11.33;49.72
9110;BME280;4590;51.462;6.692;2023-02-15T10:04:56;102417.50;;;11.47;47.51
9110;BME280;4590;51.462;6.692;2023-02-15T10:07:59;102420.63;;;11.81;47.75
9110;BME280;4590;51.462;6.692;2023-02-15T10:10:41;102421.19;;;12.03;46.94
9110;BME280;4590;51.462;6.692;2023-02-15T10:13:31;102422.03;;;12.09;45.21
9110;BME280;4590;51.462;6.692;2023-02-15T10:19:28;102418.16;;;12.35;45.11
9110;BME280;4590;51.462;6.692;2023-02-15T10:24:54;102413.47;;;12.41;44.47
9110;BME280;4590;51.462;6.692;2023-02-15T10:27:23;102422.84;;;12.35;44.55
9110;BME280;4590;51.462;6.692;2023-02-15T10:29:58;102419.75;;;12.67;46.74
9110;BME280;4590;51.462;6.692;2023-02-15T10:32:28;102416.13;;;12.81;46.96
9110;BME280;4590;51.462;6.692;2023-02-15T10:35:07;102412.75;;;12.94;46.50
9110;BME280;4590;51.462;6.692;2023-02-15T10:46:33;102405.47;;;13.24;44.00
9110;BME280;4590;51.462;6.692;2023-02-15T10:49:07;102408.16;;;13.44;45.99
9110;BME280;4590;51.462;6.692;2023-02-15T10:51:44;102405.38;;;13.49;45.28
9110;BME280;4590;51.462;6.692;2023-02-15T10:54:29;102394.03;;;13.46;43.11
9110;BME280;4590;51.462;6.692;2023-02-15T10:59:50;102397.78;;;13.21;41.83
9110;BME280;4590;51.462;6.692;2023-02-15T11:05:05;102389.88;;;13.53;43.22
9110;BME280;4590;51.462;6.692;2023-02-15T11:07:38;102400.03;;;13.63;42.87
9110;BME280;4590;51.462;6.692;2023-02-15T11:12:57;102394.66;;;13.77;43.89
9110;BME280;4590;51.462;6.692;2023-02-15T11:15:32;102388.22;;;13.86;43.45
9110;BME280;4590;51.462;6.692;2023-02-15T11:18:16;102396.28;;;13.83;42.09
9110;BME280;4590;51.462;6.692;2023-02-15T11:23:21;102398.72;;;13.89;43.21
9110;BME280;4590;51.462;6.692;2023-02-15T11:25:56;102385.81;;;13.80;41.69
9110;BME280;4590;51.462;6.692;2023-02-15T11:28:30;102396.84;;;13.85;41.89
9110;BME280;4590;51.462;6.692;2023-02-15T11:30:57;102385.94;;;13.98;42.85
9110;BME280;4590;51.462;6.692;2023-02-15T11:33:29;102385.03;;;14.03;42.70
9110;BME280;4590;51.462;6.692;2023-02-15T11:36:00;102388.59;;;14.09;42.60
9110;BME280;4590;51.462;6.692;2023-02-15T11:38:32;102390.69;;;14.22;43.06
9110;BME280;4590;51.462;6.692;2023-02-15T11:41:03;102371.53;;;14.30;41.99
9110;BME280;4590;51.462;6.692;2023-02-15T11:46:04;102368.31;;;14.18;42.64
9110;BME280;4590;51.462;6.692;2023-02-15T11:48:31;102360.44;;;14.30;42.55
9110;BME280;4590;51.462;6.692;2023-02-15T11:50:57;102355.53;;;14.22;42.47
9110;BME280;4590;51.462;6.692;2023-02-15T11:53:23;102353.06;;;14.21;42.79
9110;BME280;4590;51.462;6.692;2023-02-15T11:55:53;102352.28;;;14.15;42.66
9110;BME280;4590;51.462;6.692;2023-02-15T11:58:43;102346.25;;;14.08;41.91
9110;BME280;4590;51.462;6.692;2023-02-15T12:04:12;102332.97;;;13.76;40.88
9110;BME280;4590;51.462;6.692;2023-02-15T12:06:44;102331.53;;;13.84;42.41
9110;BME280;4590;51.462;6.692;2023-02-15T12:09:20;102332.56;;;13.59;42.69
9110;BME280;4590;51.462;6.692;2023-02-15T12:11:50;102324.06;;;13.50;42.59
9110;BME280;4590;51.462;6.692;2023-02-15T12:14:15;102316.19;;;13.28;42.77
9110;BME280;4590;51.462;6.692;2023-02-15T12:16:51;102319.47;;;13.36;42.40
9110;BME280;4590;51.462;6.692;2023-02-15T12:21:52;102310.72;;;13.18;43.11
9110;BME280;4590;51.462;6.692;2023-02-15T12:24:31;102307.19;;;13.03;42.28
9110;BME280;4590;51.462;6.692;2023-02-15T12:27:01;102318.47;;;13.21;42.84
9110;BME280;4590;51.462;6.692;2023-02-15T12:29:30;102310.59;;;12.84;42.36
9110;BME280;4590;51.462;6.692;2023-02-15T12:31:56;102316.25;;;13.08;43.11
9110;BME280;4590;51.462;6.692;2023-02-15T12:34:26;102309.44;;;12.95;42.53
9110;BME280;4590;51.462;6.692;2023-02-15T12:36:55;102311.91;;;13.02;43.09
9110;BME280;4590;51.462;6.692;2023-02-15T12:39:26;102314.31;;;13.14;43.45
9110;BME280;4590;51.462;6.692;2023-02-15T12:44:31;102302.97;;;13.20;43.23
9110;BME280;4590;51.462;6.692;2023-02-15T12:49:42;102302.38;;;13.23;43.31
9110;BME280;4590;51.462;6.692;2023-02-15T12:54:48;102298.50;;;13.24;43.45
9110;BME280;4590;51.462;6.692;2023-02-15T12:57:27;102287.16;;;13.26;43.35
9110;BME280;4590;51.462;6.692;2023-02-15T12:59:57;102286.03;;;13.32;43.42
9110;BME280;4590;51.462;6.692;2023-02-15T13:02:36;102294.03;;;13.33;44.16
9110;BME280;4590;51.462;6.692;2023-02-15T13:05:23;102290.44;;;13.33;43.25
9110;BME280;4590;51.462;6.692;2023-02-15T13:07:56;102277.13;;;13.40;44.06
9110;BME280;4590;51.462;6.692;2023-02-15T13:10:31;102276.88;;;13.37;43.38
9110;BME280;4590;51.462;6.692;2023-02-15T13:12:58;102267.38;;;13.48;44.21
9110;BME280;4590;51.462;6.692;2023-02-15T13:15:35;102262.94;;;13.52;44.08
9110;BME280;4590;51.462;6.692;2023-02-15T13:18:02;102251.91;;;13.47;43.70
9110;BME280;4590;51.462;6.692;2023-02-15T13:20:29;102254.88;;;13.55;43.89
9110;BME280;4590;51.462;6.692;2023-02-15T13:23:01;102240.22;;;13.55;43.40
9110;BME280;4590;51.462;6.692;2023-02-15T13:25:32;102238.53;;;13.59;43.35
9110;BME280;4590;51.462;6.692;2023-02-15T13:28:04;102233.28;;;13.57;43.19
9110;BME280;4590;51.462;6.692;2023-02-15T13:30:33;102233.78;;;13.64;43.30
9110;BME280;4590;51.462;6.692;2023-02-15T13:33:06;102239.31;;;13.64;43.27
9110;BME280;4590;51.462;6.692;2023-02-15T13:35:44;102240.44;;;13.63;43.04
9110;BME280;4590;51.462;6.692;2023-02-15T13:41:03;102235.47;;;13.60;41.74
9110;BME280;4590;51.462;6.692;2023-02-15T13:50:05;102223.19;;;13.72;41.54
9110;BME280;4590;51.462;6.692;2023-02-15T13:52:45;102224.31;;;13.70;42.20
9110;BME280;4590;51.462;6.692;2023-02-15T13:55:20;102224.38;;;13.65;40.94
9110;BME280;4590;51.462;6.692;2023-02-15T14:00:47;102219.25;;;13.78;42.10
9110;BME280;4590;51.462;6.692;2023-02-15T14:03:28;102210.97;;;13.78;41.70
9110;BME280;4590;51.462;6.692;2023-02-15T14:06:19;102222.53;;;13.85;42.12
9110;BME280;4590;51.462;6.692;2023-02-15T14:11:56;102222.66;;;13.69;39.69
9110;BME280;4590;51.462;6.692;2023-02-15T14:14:57;102224.50;;;13.79;41.22
9110;BME280;4590;51.462;6.692;2023-02-15T14:17:47;102221.69;;;13.84;41.73
9110;BME280;4590;51.462;6.692;2023-02-15T14:29:56;102212.34;;;13.80;41.12
9110;BME280;4590;51.462;6.692;2023-02-15T14:32:00;102203.97;;;13.85;42.05
9110;BME280;4590;51.462;6.692;2023-02-15T14:34:33;102202.63;;;13.83;42.24
9110;BME280;4590;51.462;6.692;2023-02-15T14:37:03;102201.81;;;13.82;41.85
9110;BME280;4590;51.462;6.692;2023-02-15T14:39:43;102201.59;;;13.74;41.29
9110;BME280;4590;51.462;6.692;2023-02-15T14:42:34;102207.38;;;13.77;41.86
9110;BME280;4590;51.462;6.692;2023-02-15T14:45:19;102198.00;;;13.73;41.64
9110;BME280;4590;51.462;6.692;2023-02-15T14:48:31;102198.38;;;13.66;40.79
9110;BME280;4590;51.462;6.692;2023-02-15T14:50:58;102197.97;;;13.78;42.09
9110;BME280;4590;51.462;6.692;2023-02-15T14:58:38;102192.38;;;13.83;42.40
9110;BME280;4590;51.462;6.692;2023-02-15T15:01:32;102188.78;;;13.83;42.52
9110;BME280;4590;51.462;6.692;2023-02-15T15:04:02;102183.78;;;13.85;42.76
9110;BME280;4590;51.462;6.692;2023-02-15T15:06:31;102191.56;;;13.83;42.73
9110;BME280;4590;51.462;6.692;2023-02-15T15:11:39;102191.56;;;13.83;42.75
9110;BME280;4590;51.462;6.692;2023-02-15T15:14:05;102192.72;;;13.77;42.88